createdAt,value
2022-12-29T00:03:03.896Z,99075.94
2022-12-29T00:06:08.982Z,99075.97
2022-12-29T00:09:15.333Z,99079.47
2022-12-29T00:12:20.141Z,99075.94
2022-12-29T00:15:40.046Z,99065.25
2022-12-29T00:18:44.896Z,99071.22
2022-12-29T00:22:02.065Z,99061.34
2022-12-29T00:25:19.881Z,99059.28
2022-12-29T00:28:37.072Z,99059.66
2022-12-29T00:31:56.911Z,99050.16
2022-12-29T00:35:13.512Z,99059.66
2022-12-29T00:38:31.499Z,99043.97
2022-12-29T00:41:48.740Z,99049.78
2022-12-29T00:44:53.461Z,99031.44
2022-12-29T00:48:00.839Z,99032.88
2022-12-29T00:51:03.007Z,99032.88
2022-12-29T00:54:07.799Z,99025.03
2022-12-29T00:57:13.876Z,99030.00
2022-12-29T01:00:18.931Z,99030.41
2022-12-29T01:03:26.282Z,99017.59
2022-12-29T01:06:31.214Z,99029.13
2022-12-29T01:09:48.762Z,99040.50
2022-12-29T01:12:53.521Z,99033.50
2022-12-29T01:15:59.052Z,99046.69
2022-12-29T01:19:06.540Z,99042.75
2022-12-29T01:22:12.010Z,99034.50
2022-12-29T01:25:16.739Z,99039.44
2022-12-29T01:28:26.201Z,99042.34
2022-12-29T01:31:31.354Z,99039.84
2022-12-29T01:34:38.735Z,99039.84
2022-12-29T01:37:43.465Z,99036.97
2022-12-29T01:40:48.926Z,99035.09
2022-12-29T01:43:56.231Z,99031.81
2022-12-29T01:47:01.053Z,99034.28
2022-12-29T01:50:12.742Z,99030.78
2022-12-29T01:53:21.818Z,99042.50
2022-12-29T01:56:27.340Z,99036.72
2022-12-29T01:59:36.699Z,99047.63
2022-12-29T02:02:42.024Z,99041.91
2022-12-29T02:05:55.491Z,99040.31
2022-12-29T02:09:01.455Z,99042.31
2022-12-29T02:12:06.626Z,99034.91
2022-12-29T02:15:13.247Z,99029.53
2022-12-29T02:18:31.635Z,99024.59
2022-12-29T02:21:57.354Z,99023.53
2022-12-29T02:25:34.509Z,99024.41
2022-12-29T02:29:08.113Z,99018.34
2022-12-29T02:32:23.372Z,99017.44
2022-12-29T02:35:37.669Z,99014.50
2022-12-29T02:38:59.202Z,99013.69
2022-12-29T02:42:12.956Z,99007.84
2022-12-29T02:45:25.410Z,99001.41
2022-12-29T02:48:39.113Z,99000.19
2022-12-29T02:51:50.833Z,99008.88
2022-12-29T02:54:57.987Z,99011.38
2022-12-29T02:58:21.962Z,99010.16
2022-12-29T03:02:01.790Z,99006.06
2022-12-29T03:05:24.031Z,99010.38
2022-12-29T03:08:39.701Z,99022.19
2022-12-29T03:12:08.112Z,99028.88
2022-12-29T03:15:31.559Z,99005.38
2022-12-29T03:18:45.828Z,99017.31
2022-12-29T03:22:11.756Z,99012.75
2022-12-29T03:25:22.452Z,99008.66
2022-12-29T03:28:32.329Z,98999.94
2022-12-29T03:31:38.124Z,99006.78
2022-12-29T03:34:43.525Z,99005.53
2022-12-29T03:37:55.517Z,98998.16
2022-12-29T03:41:04.244Z,98992.34
2022-12-29T03:44:09.925Z,98987.88
2022-12-29T03:47:15.644Z,98988.56
2022-12-29T03:50:20.373Z,98985.47
2022-12-29T03:53:27.735Z,98982.88
2022-12-29T03:56:32.510Z,98981.41
2022-12-29T03:59:37.440Z,98976.63
2022-12-29T04:02:42.440Z,98980.97
2022-12-29T04:05:47.356Z,98974.22
2022-12-29T04:08:54.691Z,98986.41
2022-12-29T04:11:59.484Z,98982.41
2022-12-29T04:15:04.495Z,98991.78
2022-12-29T04:18:09.350Z,98982.59
2022-12-29T04:21:14.199Z,98988.22
2022-12-29T04:24:21.929Z,98986.94
2022-12-29T04:27:26.980Z,98971.81
2022-12-29T04:30:32.072Z,98963.47
2022-12-29T04:33:36.947Z,98969.00
2022-12-29T04:36:41.944Z,98967.31
2022-12-29T04:39:49.308Z,98966.16
2022-12-29T04:42:54.129Z,98946.72
2022-12-29T04:45:59.078Z,98952.72
2022-12-29T04:49:09.747Z,98947.63
2022-12-29T04:52:14.679Z,98948.06
2022-12-29T04:55:22.503Z,98946.66
2022-12-29T04:58:27.322Z,98950.84
2022-12-29T05:01:32.157Z,98952.31
2022-12-29T05:04:37.087Z,98947.47
2022-12-29T05:07:42.158Z,98947.03
2022-12-29T05:10:51.157Z,98944.88
2022-12-29T05:13:55.928Z,98939.72
2022-12-29T05:17:00.700Z,98941.06
2022-12-29T05:20:06.924Z,98933.63
2022-12-29T05:23:12.402Z,98937.94
2022-12-29T05:26:19.789Z,98943.31
2022-12-29T05:29:24.566Z,98934.72
2022-12-29T05:32:29.706Z,98936.28
2022-12-29T05:35:35.518Z,98936.97
2022-12-29T05:38:40.347Z,98935.25
2022-12-29T05:41:47.758Z,98939.88
2022-12-29T05:44:55.025Z,98943.91
2022-12-29T05:47:59.876Z,98942.56
2022-12-29T05:51:04.646Z,98946.34
2022-12-29T05:54:09.740Z,98946.78
2022-12-29T05:57:17.041Z,98956.38
2022-12-29T06:00:22.206Z,98943.50
2022-12-29T06:03:27.360Z,98943.16
2022-12-29T06:06:32.357Z,98951.84
2022-12-29T06:09:37.115Z,98954.25
2022-12-29T06:12:44.545Z,98947.53
2022-12-29T06:15:52.033Z,98949.31
2022-12-29T06:18:56.924Z,98946.69
2022-12-29T06:22:01.646Z,98950.78
2022-12-29T06:25:06.938Z,98944.97
2022-12-29T06:28:14.546Z,98948.06
2022-12-29T06:31:19.357Z,98953.88
2022-12-29T06:34:24.068Z,98950.06
2022-12-29T06:37:29.043Z,98948.00
2022-12-29T06:40:33.937Z,98956.06
2022-12-29T06:43:41.806Z,98951.41
2022-12-29T06:46:46.586Z,98951.50
2022-12-29T06:49:51.407Z,98942.41
2022-12-29T06:52:56.218Z,98948.28
2022-12-29T06:56:01.395Z,98937.00
2022-12-29T06:59:08.753Z,98936.41
2022-12-29T07:02:15.663Z,98942.16
2022-12-29T07:05:20.864Z,98935.94
2022-12-29T07:08:25.610Z,98945.91
2022-12-29T07:11:30.377Z,98948.28
2022-12-29T07:14:42.854Z,98939.41
2022-12-29T07:17:48.275Z,98940.97
2022-12-29T07:20:53.075Z,98933.63
2022-12-29T07:23:58.359Z,98934.25
2022-12-29T07:27:03.096Z,98943.22
2022-12-29T07:30:11.925Z,98949.56
2022-12-29T07:33:16.697Z,98944.25
2022-12-29T07:36:22.421Z,98937.75
2022-12-29T07:39:27.242Z,98938.72
2022-12-29T07:42:32.682Z,98948.06
2022-12-29T07:45:40.266Z,98950.59
2022-12-29T07:48:45.028Z,98942.25
2022-12-29T07:51:49.842Z,98943.97
2022-12-29T07:54:54.599Z,98949.34
2022-12-29T07:58:00.356Z,98936.03
2022-12-29T08:01:08.083Z,98934.00
2022-12-29T08:04:13.275Z,98933.94
2022-12-29T08:07:18.272Z,98929.69
2022-12-29T08:10:23.291Z,98926.41
2022-12-29T08:13:28.848Z,98939.94
2022-12-29T08:16:36.403Z,98935.72
2022-12-29T08:19:43.701Z,98946.66
2022-12-29T08:22:48.450Z,98938.97
2022-12-29T08:26:01.785Z,98942.56
2022-12-29T08:29:06.589Z,98940.16
2022-12-29T08:32:14.363Z,98944.81
2022-12-29T08:35:19.216Z,98947.19
2022-12-29T08:38:23.949Z,98951.38
2022-12-29T08:41:28.691Z,98949.06
2022-12-29T08:44:33.466Z,98951.38
2022-12-29T08:47:44.025Z,98949.50
2022-12-29T08:50:49.446Z,98951.34
2022-12-29T08:53:54.618Z,98949.63
2022-12-29T08:56:59.450Z,98936.63
2022-12-29T09:00:04.457Z,98949.41
2022-12-29T09:03:12.040Z,98950.13
2022-12-29T09:06:17.940Z,98946.41
2022-12-29T09:09:22.773Z,98940.66
2022-12-29T09:12:32.961Z,98947.09
2022-12-29T09:15:41.024Z,98946.50
2022-12-29T09:18:49.075Z,98951.19
2022-12-29T09:21:53.857Z,98951.31
2022-12-29T09:24:58.591Z,98961.06
2022-12-29T09:28:07.094Z,98969.41
2022-12-29T09:31:11.841Z,98972.78
2022-12-29T09:34:19.396Z,98962.41
2022-12-29T09:37:24.142Z,98970.81
2022-12-29T09:40:33.819Z,98968.97
2022-12-29T09:43:57.828Z,98981.47
2022-12-29T09:47:04.374Z,98974.97
2022-12-29T09:50:22.681Z,98977.72
2022-12-29T09:53:32.902Z,98963.66
2022-12-29T09:56:37.696Z,98960.94
2022-12-29T09:59:45.451Z,98966.34
2022-12-29T10:02:54.809Z,98960.56
2022-12-29T10:06:13.489Z,98957.97
2022-12-29T10:09:28.498Z,98953.25
2022-12-29T10:12:37.338Z,98964.47
2022-12-29T10:15:57.891Z,98950.44
2022-12-29T10:19:28.292Z,98945.78
2022-12-29T10:22:54.961Z,98948.66
2022-12-29T10:26:01.206Z,98957.38
2022-12-29T10:29:08.828Z,98937.16
2022-12-29T10:32:27.910Z,98957.50
2022-12-29T10:35:40.218Z,98951.78
2022-12-29T10:38:55.470Z,98953.53
2022-12-29T10:42:08.697Z,98954.84
2022-12-29T10:45:17.391Z,98952.03
2022-12-29T10:48:31.520Z,98936.28
2022-12-29T10:51:42.400Z,98945.13
2022-12-29T10:54:55.178Z,98949.31
2022-12-29T10:58:05.869Z,98962.72
2022-12-29T11:01:15.601Z,98950.38
2022-12-29T11:04:35.004Z,98960.47
2022-12-29T11:07:40.653Z,98949.03
2022-12-29T11:10:49.467Z,98945.25
2022-12-29T11:14:00.418Z,98964.50
2022-12-29T11:17:08.012Z,98939.44
2022-12-29T11:20:31.346Z,98955.13
2022-12-29T11:23:39.287Z,98944.53
2022-12-29T11:26:48.142Z,98948.44
2022-12-29T11:29:54.319Z,98940.91
2022-12-29T11:32:59.859Z,98950.06
2022-12-29T11:36:08.832Z,98947.03
2022-12-29T11:39:29.847Z,98947.78
2022-12-29T11:42:41.135Z,98940.38
2022-12-29T11:45:50.742Z,98923.91
2022-12-29T11:48:59.427Z,98957.75
2022-12-29T11:52:04.560Z,98941.31
2022-12-29T11:55:23.079Z,98948.84
2022-12-29T11:58:36.230Z,98947.91
2022-12-29T12:01:43.037Z,98946.28
2022-12-29T12:04:48.366Z,98951.25
2022-12-29T12:07:58.821Z,98949.38
2022-12-29T12:11:10.830Z,98938.22
2022-12-29T12:14:24.223Z,98959.66
2022-12-29T12:17:38.603Z,98927.19
2022-12-29T12:20:49.931Z,98939.16
2022-12-29T12:24:16.323Z,98943.75
2022-12-29T12:27:28.222Z,98940.75
2022-12-29T12:30:42.947Z,98933.00
2022-12-29T12:33:52.046Z,98920.59
2022-12-29T12:37:12.518Z,98937.59
2022-12-29T12:40:39.394Z,98933.09
2022-12-29T12:43:49.351Z,98940.47
2022-12-29T12:47:21.078Z,98938.47
2022-12-29T12:50:39.479Z,98950.53
2022-12-29T12:53:54.287Z,98952.25
2022-12-29T12:57:09.066Z,98962.78
2022-12-29T13:00:19.251Z,98945.97
2022-12-29T13:03:48.889Z,98961.00
2022-12-29T13:07:02.272Z,98962.97
2022-12-29T13:10:23.064Z,98961.38
2022-12-29T13:13:59.909Z,98950.81
2022-12-29T13:17:12.283Z,98948.94
2022-12-29T13:20:29.486Z,98955.78
2022-12-29T13:23:41.873Z,98972.53
2022-12-29T13:26:51.994Z,98978.97
2022-12-29T13:30:05.342Z,98980.06
2022-12-29T13:33:22.022Z,98986.72
2022-12-29T13:36:34.188Z,98986.47
2022-12-29T13:39:43.015Z,98979.31
2022-12-29T13:42:49.852Z,98993.53
2022-12-29T13:46:02.628Z,98968.28
2022-12-29T13:49:12.423Z,98973.88
2022-12-29T13:52:25.587Z,98981.22
2022-12-29T13:55:35.741Z,98986.28
2022-12-29T13:58:48.547Z,98988.00
2022-12-29T14:02:01.159Z,98988.59
2022-12-29T14:05:09.665Z,98993.75
2022-12-29T14:08:22.055Z,98996.25
2022-12-29T14:11:33.232Z,98996.97
2022-12-29T14:14:41.713Z,98993.81
2022-12-29T14:17:47.661Z,99010.31
2022-12-29T14:20:58.027Z,99011.59
2022-12-29T14:24:41.634Z,99014.78
2022-12-29T14:27:57.391Z,99006.91
2022-12-29T14:31:03.423Z,99009.81
2022-12-29T14:34:43.675Z,99014.16
2022-12-29T14:37:50.440Z,99012.53
2022-12-29T14:41:31.668Z,99018.16
2022-12-29T14:44:37.797Z,99015.91
2022-12-29T14:47:45.215Z,99019.06
2022-12-29T14:50:50.228Z,99028.22
2022-12-29T14:53:55.441Z,99025.06
2022-12-29T14:57:06.497Z,99014.81
2022-12-29T15:00:23.980Z,99016.31
2022-12-29T15:03:33.970Z,99016.78
2022-12-29T15:06:42.926Z,99022.69
2022-12-29T15:09:52.122Z,99038.75
2022-12-29T15:12:59.719Z,99050.59
2022-12-29T15:16:05.086Z,99063.13
2022-12-29T15:19:25.506Z,99057.34
2022-12-29T15:22:31.368Z,99058.69
2022-12-29T15:25:37.203Z,99058.38
2022-12-29T15:28:46.480Z,99067.81
2022-12-29T15:31:52.271Z,99070.91
2022-12-29T15:34:59.441Z,99083.38
2022-12-29T15:38:17.139Z,99093.97
2022-12-29T15:41:30.433Z,99105.72
2022-12-29T15:44:43.034Z,99120.84
2022-12-29T15:47:50.502Z,99127.09
2022-12-29T15:50:55.971Z,99119.25
2022-12-29T15:54:01.741Z,99125.09
2022-12-29T15:57:07.153Z,99131.31
2022-12-29T16:00:27.346Z,99116.72
2022-12-29T16:03:36.151Z,99120.66
2022-12-29T16:06:47.752Z,99084.34
2022-12-29T16:09:58.671Z,99088.88
2022-12-29T16:13:21.510Z,99090.50
2022-12-29T16:16:32.868Z,99094.63
2022-12-29T16:19:39.941Z,99092.97
2022-12-29T16:22:51.942Z,99104.13
2022-12-29T16:25:59.040Z,99086.59
2022-12-29T16:29:08.873Z,99091.75
2022-12-29T16:32:29.737Z,99077.50
2022-12-29T16:35:43.733Z,99060.34
2022-12-29T16:38:48.530Z,99076.69
2022-12-29T16:41:54.434Z,99071.94
2022-12-29T16:45:35.937Z,99079.00
2022-12-29T16:48:53.238Z,99079.41
2022-12-29T16:51:59.560Z,99085.19
2022-12-29T16:55:05.320Z,99084.72
2022-12-29T16:58:20.399Z,99083.94
2022-12-29T17:01:26.030Z,99098.41
2022-12-29T17:04:33.942Z,99106.25
2022-12-29T17:07:44.327Z,99107.06
2022-12-29T17:11:01.599Z,99110.16
2022-12-29T17:14:06.814Z,99094.69
2022-12-29T17:17:21.573Z,99104.97
2022-12-29T17:20:31.032Z,99107.91
2022-12-29T17:23:37.099Z,99101.91
2022-12-29T17:26:41.903Z,99107.88
2022-12-29T17:29:46.646Z,99110.97
2022-12-29T17:32:55.230Z,99124.41
2022-12-29T17:36:02.940Z,99131.00
2022-12-29T17:39:08.699Z,99128.09
2022-12-29T17:42:15.010Z,99140.50
2022-12-29T17:45:21.788Z,99128.94
2022-12-29T17:48:26.924Z,99129.97
2022-12-29T17:51:34.906Z,99131.81
2022-12-29T17:54:39.735Z,99132.69
2022-12-29T17:57:44.546Z,99141.34
2022-12-29T18:00:50.283Z,99146.50
2022-12-29T18:03:55.258Z,99163.59
2022-12-29T18:07:02.649Z,99158.44
2022-12-29T18:10:08.239Z,99163.22
2022-12-29T18:13:23.108Z,99168.56
2022-12-29T18:16:28.366Z,99157.44
2022-12-29T18:19:36.043Z,99160.75
2022-12-29T18:22:43.846Z,99159.47
2022-12-29T18:25:52.970Z,99153.94
2022-12-29T18:28:58.695Z,99150.41
2022-12-29T18:32:03.528Z,99151.03
2022-12-29T18:35:16.883Z,99157.22
2022-12-29T18:38:24.362Z,99156.38
2022-12-29T18:41:31.269Z,99159.69
2022-12-29T18:44:36.514Z,99150.63
2022-12-29T18:47:41.266Z,99162.78
2022-12-29T18:50:46.437Z,99166.50
2022-12-29T18:53:54.840Z,99166.91
2022-12-29T18:57:00.032Z,99167.31
2022-12-29T19:00:05.289Z,99171.66
2022-12-29T19:03:10.423Z,99178.03
2022-12-29T19:06:15.241Z,99169.16
2022-12-29T19:09:22.831Z,99168.13
2022-12-29T19:12:28.638Z,99173.09
2022-12-29T19:15:35.921Z,99164.81
2022-12-29T19:18:44.140Z,99150.78
2022-12-29T19:21:54.617Z,99142.13
2022-12-29T19:25:02.880Z,99133.47
2022-12-29T19:28:08.923Z,99156.16
2022-12-29T19:31:13.642Z,99159.91
2022-12-29T19:34:19.111Z,99163.63
2022-12-29T19:37:23.882Z,99153.25
2022-12-29T19:40:33.182Z,99162.38
2022-12-29T19:43:38.009Z,99154.13
2022-12-29T19:46:42.777Z,99151.66
2022-12-29T19:49:47.610Z,99157.00
2022-12-29T19:52:57.285Z,99157.19
2022-12-29T19:56:11.209Z,99161.94
2022-12-29T19:59:16.157Z,99169.38
2022-12-29T20:02:23.003Z,99159.06
2022-12-29T20:05:27.827Z,99163.59
2022-12-29T20:08:32.528Z,99171.25
2022-12-29T20:11:40.055Z,99162.56
2022-12-29T20:14:46.015Z,99173.09
2022-12-29T20:21:17.548Z,99174.31
2022-12-29T20:24:22.344Z,99170.63
2022-12-29T20:27:30.030Z,99177.00
2022-12-29T20:30:34.921Z,99178.88
2022-12-29T20:33:39.711Z,99182.56
2022-12-29T20:36:46.963Z,99184.88
2022-12-29T20:39:52.077Z,99183.00
2022-12-29T20:42:59.633Z,99191.25
2022-12-29T20:46:04.681Z,99176.41
2022-12-29T20:49:09.806Z,99190.44
2022-12-29T20:52:14.689Z,99191.66
2022-12-29T20:55:19.589Z,99181.78
2022-12-29T20:58:27.295Z,99191.25
2022-12-29T21:01:32.839Z,99196.63
2022-12-29T21:05:05.511Z,99203.63
2022-12-29T21:08:02.981Z,99220.53
2022-12-29T21:11:08.880Z,99229.22
2022-12-29T21:14:16.241Z,99221.38
2022-12-29T21:17:21.015Z,99226.75
2022-12-29T21:20:30.358Z,99237.88
2022-12-29T21:23:35.653Z,99235.00
2022-12-29T21:26:40.626Z,99230.47
2022-12-29T21:29:48.284Z,99232.50
2022-12-29T21:32:53.111Z,99242.22
2022-12-29T21:35:57.838Z,99234.59
2022-12-29T21:39:03.770Z,99230.84
2022-12-29T21:42:08.829Z,99246.53
2022-12-29T21:45:30.324Z,99242.41
2022-12-29T21:48:35.375Z,99232.53
2022-12-29T21:51:56.020Z,99236.84
2022-12-29T21:55:05.190Z,99253.16
2022-12-29T21:58:23.574Z,99259.31
2022-12-29T22:01:45.765Z,99253.56
2022-12-29T22:05:04.560Z,99251.09
2022-12-29T22:08:22.122Z,99257.25
2022-12-29T22:11:39.805Z,99250.22
2022-12-29T22:14:44.568Z,99252.94
2022-12-29T22:17:53.629Z,99263.03
2022-12-29T22:20:58.526Z,99270.03
2022-12-29T22:24:03.421Z,99275.41
2022-12-29T22:27:08.543Z,99277.63
2022-12-29T22:30:14.216Z,99286.94
2022-12-29T22:33:21.611Z,99287.78
2022-12-29T22:36:27.590Z,99289.81
2022-12-29T22:39:32.361Z,99292.75
2022-12-29T22:42:37.183Z,99298.06
2022-12-29T22:45:42.186Z,99298.50
2022-12-29T22:48:49.714Z,99307.63
2022-12-29T22:51:54.670Z,99316.25
2022-12-29T22:55:06.160Z,99326.97
2022-12-29T22:58:11.699Z,99315.41
2022-12-29T23:01:19.300Z,99336.44
2022-12-29T23:05:01.536Z,99337.28
2022-12-29T23:07:51.597Z,99339.34
2022-12-29T23:10:56.688Z,99336.91
2022-12-29T23:14:03.195Z,99330.31
2022-12-29T23:17:07.926Z,99341.84
2022-12-29T23:20:15.476Z,99343.50
2022-12-29T23:23:48.478Z,99359.13
2022-12-29T23:26:54.161Z,99364.13
2022-12-29T23:29:58.898Z,99361.41
2022-12-29T23:33:03.868Z,99366.75
2022-12-29T23:36:11.738Z,99357.66
2022-12-29T23:39:21.641Z,99349.63
2022-12-29T23:42:26.559Z,99361.66
2022-12-29T23:45:31.636Z,99368.19
2022-12-29T23:48:36.481Z,99370.66
2022-12-29T23:51:44.041Z,99368.59
2022-12-29T23:54:49.727Z,99379.72
2022-12-29T23:57:55.481Z,99369.81
